sensor_id;sensor_type;location;lat;lon;timestamp;P1;durP1;ratioP1;P2;durP2;ratioP2
19495;SDS011;9888;48.606;9.630;2023-06-24T00:01:55;13.70;;;7.03;;
19495;SDS011;9888;48.606;9.630;2023-06-24T00:04:23;13.87;;;7.30;;
19495;SDS011;9888;48.606;9.630;2023-06-24T00:06:50;17.40;;;6.63;;
19495;SDS011;9888;48.606;9.630;2023-06-24T00:09:18;12.90;;;6.17;;
19495;SDS011;9888;48.606;9.630;2023-06-24T00:11:45;14.63;;;6.90;;
19495;SDS011;9888;48.606;9.630;2023-06-24T00:14:13;13.97;;;6.70;;
19495;SDS011;9888;48.606;9.630;2023-06-24T00:16:41;12.53;;;6.50;;
19495;SDS011;9888;48.606;9.630;2023-06-24T00:19:09;11.90;;;6.30;;
19495;SDS011;9888;48.606;9.630;2023-06-24T00:21:36;18.03;;;7.20;;
19495;SDS011;9888;48.606;9.630;2023-06-24T00:24:06;14.63;;;6.97;;
19495;SDS011;9888;48.606;9.630;2023-06-24T00:26:35;13.90;;;6.50;;
19495;SDS011;9888;48.606;9.630;2023-06-24T00:29:02;12.67;;;6.50;;
19495;SDS011;9888;48.606;9.630;2023-06-24T00:31:30;17.10;;;6.70;;
19495;SDS011;9888;48.606;9.630;2023-06-24T00:33:58;14.50;;;7.80;;
19495;SDS011;9888;48.606;9.630;2023-06-24T00:36:25;13.77;;;6.67;;
19495;SDS011;9888;48.606;9.630;2023-06-24T00:38:52;12.67;;;6.20;;
19495;SDS011;9888;48.606;9.630;2023-06-24T00:41:21;12.53;;;5.70;;
19495;SDS011;9888;48.606;9.630;2023-06-24T00:43:49;11.97;;;6.27;;
19495;SDS011;9888;48.606;9.630;2023-06-24T00:46:18;14.90;;;6.33;;
19495;SDS011;9888;48.606;9.630;2023-06-24T00:48:46;13.83;;;6.80;;
19495;SDS011;9888;48.606;9.630;2023-06-24T00:51:16;14.23;;;6.30;;
19495;SDS011;9888;48.606;9.630;2023-06-24T00:53:47;13.07;;;6.33;;
19495;SDS011;9888;48.606;9.630;2023-06-24T00:56:17;15.23;;;6.13;;
19495;SDS011;9888;48.606;9.630;2023-06-24T00:58:46;14.00;;;6.60;;
19495;SDS011;9888;48.606;9.630;2023-06-24T01:01:13;13.10;;;6.40;;
19495;SDS011;9888;48.606;9.630;2023-06-24T01:03:42;13.47;;;6.30;;
19495;SDS011;9888;48.606;9.630;2023-06-24T01:06:09;11.77;;;5.70;;
19495;SDS011;9888;48.606;9.630;2023-06-24T01:08:37;13.30;;;6.80;;
19495;SDS011;9888;48.606;9.630;2023-06-24T01:11:05;11.80;;;5.87;;
19495;SDS011;9888;48.606;9.630;2023-06-24T01:13:32;12.80;;;5.90;;
19495;SDS011;9888;48.606;9.630;2023-06-24T01:16:00;11.90;;;6.10;;
19495;SDS011;9888;48.606;9.630;2023-06-24T01:18:40;15.50;;;6.10;;
19495;SDS011;9888;48.606;9.630;2023-06-24T01:21:27;13.80;;;6.30;;
19495;SDS011;9888;48.606;9.630;2023-06-24T01:24:29;13.70;;;6.33;;
19495;SDS011;9888;48.606;9.630;2023-06-24T01:27:24;11.80;;;5.37;;
19495;SDS011;9888;48.606;9.630;2023-06-24T01:30:28;16.23;;;6.60;;
19495;SDS011;9888;48.606;9.630;2023-06-24T01:33:13;12.87;;;5.47;;
19495;SDS011;9888;48.606;9.630;2023-06-24T01:35:48;11.73;;;5.40;;
19495;SDS011;9888;48.606;9.630;2023-06-24T01:38:18;13.10;;;6.07;;
19495;SDS011;9888;48.606;9.630;2023-06-24T01:40:53;13.87;;;5.97;;
19495;SDS011;9888;48.606;9.630;2023-06-24T01:43:22;14.57;;;5.60;;
19495;SDS011;9888;48.606;9.630;2023-06-24T01:45:51;12.63;;;5.50;;
19495;SDS011;9888;48.606;9.630;2023-06-24T01:48:25;13.80;;;5.53;;
19495;SDS011;9888;48.606;9.630;2023-06-24T01:53:27;13.50;;;5.67;;
19495;SDS011;9888;48.606;9.630;2023-06-24T01:55:59;12.07;;;5.90;;
19495;SDS011;9888;48.606;9.630;2023-06-24T01:58:29;13.57;;;6.50;;
19495;SDS011;9888;48.606;9.630;2023-06-24T02:00:57;11.87;;;5.60;;
19495;SDS011;9888;48.606;9.630;2023-06-24T02:03:28;11.70;;;5.70;;
19495;SDS011;9888;48.606;9.630;2023-06-24T02:05:58;13.87;;;5.97;;
19495;SDS011;9888;48.606;9.630;2023-06-24T02:08:33;13.40;;;6.10;;
19495;SDS011;9888;48.606;9.630;2023-06-24T02:11:02;15.30;;;6.20;;
19495;SDS011;9888;48.606;9.630;2023-06-24T02:13:33;13.37;;;6.53;;
19495;SDS011;9888;48.606;9.630;2023-06-24T02:16:01;13.03;;;5.70;;
19495;SDS011;9888;48.606;9.630;2023-06-24T02:18:31;11.90;;;5.57;;
19495;SDS011;9888;48.606;9.630;2023-06-24T02:21:03;11.70;;;5.90;;
19495;SDS011;9888;48.606;9.630;2023-06-24T02:23:34;14.30;;;5.80;;
19495;SDS011;9888;48.606;9.630;2023-06-24T02:26:03;13.47;;;5.40;;
19495;SDS011;9888;48.606;9.630;2023-06-24T02:28:33;13.97;;;5.77;;
19495;SDS011;9888;48.606;9.630;2023-06-24T02:31:01;11.27;;;4.77;;
19495;SDS011;9888;48.606;9.630;2023-06-24T02:33:30;12.60;;;5.17;;
19495;SDS011;9888;48.606;9.630;2023-06-24T02:35:58;10.97;;;5.30;;
19495;SDS011;9888;48.606;9.630;2023-06-24T02:38:25;14.47;;;5.60;;
19495;SDS011;9888;48.606;9.630;2023-06-24T02:40:52;12.30;;;5.30;;
19495;SDS011;9888;48.606;9.630;2023-06-24T02:43:20;12.27;;;6.00;;
19495;SDS011;9888;48.606;9.630;2023-06-24T02:45:47;11.17;;;5.50;;
19495;SDS011;9888;48.606;9.630;2023-06-24T02:48:16;11.37;;;5.37;;
19495;SDS011;9888;48.606;9.630;2023-06-24T02:50:46;10.43;;;5.33;;
19495;SDS011;9888;48.606;9.630;2023-06-24T02:53:14;14.63;;;5.77;;
19495;SDS011;9888;48.606;9.630;2023-06-24T02:55:43;11.30;;;5.50;;
19495;SDS011;9888;48.606;9.630;2023-06-24T02:58:12;10.50;;;5.23;;
19495;SDS011;9888;48.606;9.630;2023-06-24T03:00:40;12.37;;;5.40;;
19495;SDS011;9888;48.606;9.630;2023-06-24T03:03:09;12.03;;;5.60;;
19495;SDS011;9888;48.606;9.630;2023-06-24T03:05:38;13.03;;;5.80;;
19495;SDS011;9888;48.606;9.630;2023-06-24T03:08:06;12.33;;;5.27;;
19495;SDS011;9888;48.606;9.630;2023-06-24T03:10:35;13.67;;;5.83;;
19495;SDS011;9888;48.606;9.630;2023-06-24T03:13:03;11.60;;;5.03;;
19495;SDS011;9888;48.606;9.630;2023-06-24T03:15:31;14.77;;;5.90;;
19495;SDS011;9888;48.606;9.630;2023-06-24T03:17:58;11.43;;;5.80;;
19495;SDS011;9888;48.606;9.630;2023-06-24T03:20:26;10.73;;;4.93;;
19495;SDS011;9888;48.606;9.630;2023-06-24T03:23:07;10.27;;;4.67;;
19495;SDS011;9888;48.606;9.630;2023-06-24T03:25:34;11.40;;;5.03;;
19495;SDS011;9888;48.606;9.630;2023-06-24T03:28:01;12.07;;;5.50;;
19495;SDS011;9888;48.606;9.630;2023-06-24T03:30:30;12.47;;;5.60;;
19495;SDS011;9888;48.606;9.630;2023-06-24T03:33:00;9.93;;;4.57;;
19495;SDS011;9888;48.606;9.630;2023-06-24T03:35:28;10.83;;;5.50;;
19495;SDS011;9888;48.606;9.630;2023-06-24T03:37:58;12.33;;;6.00;;
19495;SDS011;9888;48.606;9.630;2023-06-24T03:40:26;11.83;;;5.57;;
19495;SDS011;9888;48.606;9.630;2023-06-24T03:42:55;11.47;;;5.87;;
19495;SDS011;9888;48.606;9.630;2023-06-24T03:45:22;13.23;;;5.73;;
19495;SDS011;9888;48.606;9.630;2023-06-24T03:47:50;11.30;;;5.20;;
19495;SDS011;9888;48.606;9.630;2023-06-24T03:50:17;15.67;;;6.20;;
19495;SDS011;9888;48.606;9.630;2023-06-24T03:52:48;13.50;;;5.43;;
19495;SDS011;9888;48.606;9.630;2023-06-24T03:55:16;12.10;;;5.60;;
19495;SDS011;9888;48.606;9.630;2023-06-24T03:57:45;14.30;;;5.50;;
19495;SDS011;9888;48.606;9.630;2023-06-24T04:00:12;10.80;;;5.30;;
19495;SDS011;9888;48.606;9.630;2023-06-24T04:02:42;18.20;;;5.67;;
19495;SDS011;9888;48.606;9.630;2023-06-24T04:05:11;14.27;;;5.73;;
19495;SDS011;9888;48.606;9.630;2023-06-24T04:07:39;11.40;;;5.63;;
19495;SDS011;9888;48.606;9.630;2023-06-24T04:10:12;12.17;;;6.17;;
19495;SDS011;9888;48.606;9.630;2023-06-24T04:12:40;22.50;;;7.30;;
19495;SDS011;9888;48.606;9.630;2023-06-24T04:15:17;12.80;;;6.27;;
19495;SDS011;9888;48.606;9.630;2023-06-24T04:18:02;21.13;;;7.00;;
19495;SDS011;9888;48.606;9.630;2023-06-24T04:20:29;14.77;;;6.43;;
19495;SDS011;9888;48.606;9.630;2023-06-24T04:22:57;14.07;;;6.30;;
19495;SDS011;9888;48.606;9.630;2023-06-24T04:25:26;12.83;;;6.43;;
19495;SDS011;9888;48.606;9.630;2023-06-24T04:27:56;14.77;;;6.90;;
19495;SDS011;9888;48.606;9.630;2023-06-24T04:30:25;14.93;;;7.20;;
19495;SDS011;9888;48.606;9.630;2023-06-24T04:32:52;15.60;;;7.50;;
19495;SDS011;9888;48.606;9.630;2023-06-24T04:35:21;17.90;;;7.07;;
19495;SDS011;9888;48.606;9.630;2023-06-24T04:37:51;22.83;;;7.73;;
19495;SDS011;9888;48.606;9.630;2023-06-24T04:40:19;18.90;;;7.90;;
19495;SDS011;9888;48.606;9.630;2023-06-24T04:42:46;16.43;;;6.77;;
19495;SDS011;9888;48.606;9.630;2023-06-24T04:45:17;15.73;;;7.30;;
19495;SDS011;9888;48.606;9.630;2023-06-24T04:47:44;16.57;;;7.30;;
19495;SDS011;9888;48.606;9.630;2023-06-24T04:50:12;13.70;;;6.60;;
19495;SDS011;9888;48.606;9.630;2023-06-24T04:52:39;14.80;;;7.30;;
19495;SDS011;9888;48.606;9.630;2023-06-24T04:55:08;18.47;;;7.80;;
19495;SDS011;9888;48.606;9.630;2023-06-24T04:57:39;14.30;;;7.13;;
19495;SDS011;9888;48.606;9.630;2023-06-24T05:00:08;34.37;;;15.97;;
19495;SDS011;9888;48.606;9.630;2023-06-24T05:02:43;134.37;;;64.50;;
19495;SDS011;9888;48.606;9.630;2023-06-24T05:05:11;130.73;;;55.17;;
19495;SDS011;9888;48.606;9.630;2023-06-24T05:07:42;96.07;;;44.70;;
19495;SDS011;9888;48.606;9.630;2023-06-24T05:10:11;96.23;;;44.03;;
19495;SDS011;9888;48.606;9.630;2023-06-24T05:12:39;58.07;;;31.43;;
19495;SDS011;9888;48.606;9.630;2023-06-24T05:15:11;37.77;;;17.33;;
19495;SDS011;9888;48.606;9.630;2023-06-24T05:17:41;19.50;;;10.37;;
19495;SDS011;9888;48.606;9.630;2023-06-24T05:20:11;20.87;;;9.50;;
19495;SDS011;9888;48.606;9.630;2023-06-24T05:22:38;16.93;;;7.40;;
19495;SDS011;9888;48.606;9.630;2023-06-24T05:25:11;15.90;;;7.27;;
19495;SDS011;9888;48.606;9.630;2023-06-24T05:27:41;14.13;;;7.20;;
19495;SDS011;9888;48.606;9.630;2023-06-24T05:30:10;14.80;;;7.50;;
19495;SDS011;9888;48.606;9.630;2023-06-24T05:32:38;15.13;;;7.33;;
19495;SDS011;9888;48.606;9.630;2023-06-24T05:35:06;14.07;;;6.90;;
19495;SDS011;9888;48.606;9.630;2023-06-24T05:37:35;13.70;;;6.90;;
19495;SDS011;9888;48.606;9.630;2023-06-24T05:40:05;17.03;;;7.93;;
19495;SDS011;9888;48.606;9.630;2023-06-24T05:42:39;13.73;;;7.20;;
19495;SDS011;9888;48.606;9.630;2023-06-24T05:45:06;13.93;;;6.87;;
19495;SDS011;9888;48.606;9.630;2023-06-24T05:47:37;15.03;;;7.17;;
19495;SDS011;9888;48.606;9.630;2023-06-24T05:50:06;15.33;;;7.60;;
19495;SDS011;9888;48.606;9.630;2023-06-24T05:52:34;15.23;;;7.03;;
19495;SDS011;9888;48.606;9.630;2023-06-24T05:55:01;16.27;;;7.30;;
19495;SDS011;9888;48.606;9.630;2023-06-24T05:57:29;14.10;;;7.10;;
19495;SDS011;9888;48.606;9.630;2023-06-24T05:59:58;14.17;;;6.70;;
19495;SDS011;9888;48.606;9.630;2023-06-24T06:02:26;14.40;;;7.03;;
19495;SDS011;9888;48.606;9.630;2023-06-24T06:05:04;18.57;;;6.70;;
19495;SDS011;9888;48.606;9.630;2023-06-24T06:07:34;13.30;;;6.53;;
19495;SDS011;9888;48.606;9.630;2023-06-24T06:10:05;11.93;;;6.40;;
19495;SDS011;9888;48.606;9.630;2023-06-24T06:12:32;16.27;;;6.10;;
19495;SDS011;9888;48.606;9.630;2023-06-24T06:15:00;23.10;;;6.43;;
19495;SDS011;9888;48.606;9.630;2023-06-24T06:17:29;17.10;;;6.43;;
19495;SDS011;9888;48.606;9.630;2023-06-24T06:19:57;17.77;;;6.60;;
19495;SDS011;9888;48.606;9.630;2023-06-24T06:22:28;17.63;;;5.53;;
19495;SDS011;9888;48.606;9.630;2023-06-24T06:25:02;12.47;;;5.13;;
19495;SDS011;9888;48.606;9.630;2023-06-24T06:27:30;13.43;;;5.70;;
19495;SDS011;9888;48.606;9.630;2023-06-24T06:29:58;10.13;;;4.27;;
19495;SDS011;9888;48.606;9.630;2023-06-24T06:32:26;12.07;;;5.07;;
19495;SDS011;9888;48.606;9.630;2023-06-24T06:34:54;10.33;;;4.80;;
19495;SDS011;9888;48.606;9.630;2023-06-24T06:37:21;16.07;;;6.10;;
19495;SDS011;9888;48.606;9.630;2023-06-24T06:39:51;11.33;;;5.13;;
19495;SDS011;9888;48.606;9.630;2023-06-24T06:42:19;13.50;;;5.30;;
19495;SDS011;9888;48.606;9.630;2023-06-24T06:44:46;22.63;;;6.23;;
19495;SDS011;9888;48.606;9.630;2023-06-24T06:47:14;20.43;;;5.57;;
19495;SDS011;9888;48.606;9.630;2023-06-24T06:49:46;10.83;;;5.57;;
19495;SDS011;9888;48.606;9.630;2023-06-24T06:52:14;18.70;;;5.87;;
19495;SDS011;9888;48.606;9.630;2023-06-24T06:54:43;19.00;;;6.20;;
19495;SDS011;9888;48.606;9.630;2023-06-24T06:57:11;16.03;;;6.33;;
19495;SDS011;9888;48.606;9.630;2023-06-24T06:59:42;12.37;;;5.40;;
19495;SDS011;9888;48.606;9.630;2023-06-24T07:02:13;11.00;;;4.43;;
19495;SDS011;9888;48.606;9.630;2023-06-24T07:04:41;11.70;;;5.37;;
19495;SDS011;9888;48.606;9.630;2023-06-24T07:07:10;12.50;;;6.33;;
19495;SDS011;9888;48.606;9.630;2023-06-24T07:09:38;15.70;;;7.17;;
19495;SDS011;9888;48.606;9.630;2023-06-24T07:12:08;13.63;;;5.80;;
19495;SDS011;9888;48.606;9.630;2023-06-24T07:14:39;10.17;;;5.00;;
19495;SDS011;9888;48.606;9.630;2023-06-24T07:17:19;10.60;;;4.90;;
19495;SDS011;9888;48.606;9.630;2023-06-24T07:19:46;12.20;;;6.03;;
19495;SDS011;9888;48.606;9.630;2023-06-24T07:22:15;11.93;;;5.77;;
19495;SDS011;9888;48.606;9.630;2023-06-24T07:24:48;11.23;;;5.13;;
19495;SDS011;9888;48.606;9.630;2023-06-24T07:27:18;12.50;;;6.13;;
19495;SDS011;9888;48.606;9.630;2023-06-24T07:29:48;15.83;;;6.30;;
19495;SDS011;9888;48.606;9.630;2023-06-24T07:32:20;11.70;;;5.83;;
19495;SDS011;9888;48.606;9.630;2023-06-24T07:34:52;11.90;;;5.97;;
19495;SDS011;9888;48.606;9.630;2023-06-24T07:37:20;11.70;;;5.17;;
19495;SDS011;9888;48.606;9.630;2023-06-24T22:13:52;12.30;;;5.87;;
19495;SDS011;9888;48.606;9.630;2023-06-24T22:16:20;13.07;;;6.03;;
19495;SDS011;9888;48.606;9.630;2023-06-24T22:18:47;12.70;;;6.13;;
19495;SDS011;9888;48.606;9.630;2023-06-24T22:21:17;12.93;;;6.13;;
19495;SDS011;9888;48.606;9.630;2023-06-24T22:23:49;14.67;;;6.43;;
19495;SDS011;9888;48.606;9.630;2023-06-24T22:26:16;12.17;;;6.47;;
19495;SDS011;9888;48.606;9.630;2023-06-24T22:28:44;13.60;;;6.60;;
19495;SDS011;9888;48.606;9.630;2023-06-24T22:31:12;13.07;;;6.83;;
19495;SDS011;9888;48.606;9.630;2023-06-24T22:33:40;11.00;;;5.57;;
19495;SDS011;9888;48.606;9.630;2023-06-24T22:36:07;14.30;;;6.60;;
19495;SDS011;9888;48.606;9.630;2023-06-24T22:38:34;12.97;;;5.93;;
19495;SDS011;9888;48.606;9.630;2023-06-24T22:41:00;14.00;;;7.07;;
19495;SDS011;9888;48.606;9.630;2023-06-24T22:43:29;13.63;;;6.70;;
19495;SDS011;9888;48.606;9.630;2023-06-24T22:45:57;14.53;;;6.73;;
19495;SDS011;9888;48.606;9.630;2023-06-24T22:48:27;12.50;;;6.50;;
19495;SDS011;9888;48.606;9.630;2023-06-24T22:50:54;13.33;;;6.20;;
19495;SDS011;9888;48.606;9.630;2023-06-24T22:53:22;14.23;;;6.20;;
19495;SDS011;9888;48.606;9.630;2023-06-24T22:55:51;13.50;;;6.27;;
19495;SDS011;9888;48.606;9.630;2023-06-24T22:58:18;12.53;;;6.00;;
19495;SDS011;9888;48.606;9.630;2023-06-24T23:00:48;13.50;;;6.90;;
19495;SDS011;9888;48.606;9.630;2023-06-24T23:03:17;14.10;;;7.00;;
19495;SDS011;9888;48.606;9.630;2023-06-24T23:05:45;15.17;;;6.53;;
19495;SDS011;9888;48.606;9.630;2023-06-24T23:08:14;13.67;;;6.40;;
19495;SDS011;9888;48.606;9.630;2023-06-24T23:10:43;13.60;;;6.13;;
19495;SDS011;9888;48.606;9.630;2023-06-24T23:13:10;14.10;;;7.00;;
19495;SDS011;9888;48.606;9.630;2023-06-24T23:15:39;16.23;;;7.33;;
19495;SDS011;9888;48.606;9.630;2023-06-24T23:18:07;12.13;;;6.27;;
19495;SDS011;9888;48.606;9.630;2023-06-24T23:20:36;14.57;;;6.50;;
19495;SDS011;9888;48.606;9.630;2023-06-24T23:23:08;13.10;;;6.67;;
19495;SDS011;9888;48.606;9.630;2023-06-24T23:25:42;11.90;;;6.37;;
19495;SDS011;9888;48.606;9.630;2023-06-24T23:28:10;12.20;;;6.03;;
19495;SDS011;9888;48.606;9.630;2023-06-24T23:30:46;14.67;;;7.33;;
19495;SDS011;9888;48.606;9.630;2023-06-24T23:33:15;13.80;;;6.97;;
19495;SDS011;9888;48.606;9.630;2023-06-24T23:35:47;15.10;;;7.40;;
19495;SDS011;9888;48.606;9.630;2023-06-24T23:38:19;12.97;;;6.90;;
19495;SDS011;9888;48.606;9.630;2023-06-24T23:40:47;13.60;;;6.83;;
19495;SDS011;9888;48.606;9.630;2023-06-24T23:43:15;13.43;;;6.60;;
19495;SDS011;9888;48.606;9.630;2023-06-24T23:45:47;12.60;;;6.30;;
19495;SDS011;9888;48.606;9.630;2023-06-24T23:48:15;14.03;;;6.70;;
19495;SDS011;9888;48.606;9.630;2023-06-24T23:50:43;12.53;;;6.17;;
19495;SDS011;9888;48.606;9.630;2023-06-24T23:53:10;16.57;;;7.50;;
19495;SDS011;9888;48.606;9.630;2023-06-24T23:55:37;14.70;;;7.30;;
19495;SDS011;9888;48.606;9.630;2023-06-24T23:58:04;14.83;;;7.07;;
